Portada
METAR-TAF:

METAR-TAF

Aeropuertos :

Jendouba, Túnez

latitud: 36-29N, longitud: 008-48E, altitud: 143 m

Observación

El informe se hizo hace 1 hora y 24 minutos, a las 03:00 UTC
Viento 4 kt del sur-suroeste, variando entre sur y oeste-suroeste
Temperatura 11°C
Humedad 94%
Presión 1012 hPa
Visibilidad: 8000 m
Escasas nubes a una altura de 2000 ft

METAR: DTTN 090300Z 21004KT 190V250 8000 FEW020 11/10 Q1012

Hora: 05:24 (04:24 UTC)


TAF: falta

Observaciones y pronósticos meteorológicos de más de 4000 aeropuertos (mensajes METAR y TAF).

Los puntos amarillos y rojos representan las estaciones disponibles.

Ponga el ratón en el punto deseado para ver el nombre de la estación.

Haga clic para ver las observaciones y los pronósticos meteorológicos.

Para cambiar el mapa : haga clic en los botones verdes con una cruz de color negro para hacer un zoom, en el botón verde con un guión para alejar o en las flechas verdes para mapas adyacentes.


METAR-TAF: